Time;durP1;ratioP1;P1;durP2;ratioP2;P2;SDS_P1;SDS_P2;PMS_P1;PMS_P2;Temp;Humidity;BMP_temperature;BMP_pressure;BME280_temperature;BME280_humidity;BME280_pressure;Samples;Min_cycle;Max_cycle;Signal;HPM_P1;HPM_P2
2021/01/22 00:00:11;;;;;;;0.80;0.80;;;;;;;10.45;75.15;94423.34;5096891;28;20217;-57
2021/01/22 00:02:36;;;;;;;0.80;0.80;;;;;;;10.63;74.45;94418.25;5096966;28;20201;-57
2021/01/22 00:05:02;;;;;;;2.20;0.90;;;;;;;10.43;75.04;94407.06;5097259;28;20486;-57
2021/01/22 00:07:28;;;;;;;1.00;0.90;;;;;;;10.28;75.94;94385.13;5093564;28;20244;-56
2021/01/22 00:09:53;;;;;;;1.33;0.70;;;;;;;10.29;75.95;94402.44;5092448;28;20450;-57
2021/01/22 00:12:19;;;;;;;1.70;0.73;;;;;;;10.32;75.97;94377.50;5096776;28;20208;-56
2021/01/22 00:14:47;;;;;;;0.97;0.90;;;;;;;10.38;75.99;94369.28;5096982;28;20173;-57
2021/01/22 00:17:12;;;;;;;1.20;1.00;;;;;;;10.31;75.69;94391.66;5095468;28;20222;-57
2021/01/22 00:19:38;;;;;;;0.70;0.70;;;;;;;9.99;77.74;94378.97;5096940;28;20432;-56
2021/01/22 00:22:03;;;;;;;1.27;0.77;;;;;;;9.94;77.97;94376.38;5096926;28;20166;-56
2021/01/22 00:24:28;;;;;;;1.30;1.20;;;;;;;9.95;78.33;94362.19;5096763;28;20241;-56
2021/01/22 00:26:54;;;;;;;3.80;1.10;;;;;;;10.01;78.17;94358.50;5095153;28;20181;-57
2021/01/22 00:29:19;;;;;;;0.80;0.80;;;;;;;9.98;78.37;94366.13;5076292;28;20208;-58
2021/01/22 00:31:44;;;;;;;1.90;0.93;;;;;;;9.87;79.27;94357.53;5076169;28;20220;-57
2021/01/22 00:34:11;;;;;;;0.93;0.70;;;;;;;9.93;79.03;94353.81;5075822;28;20173;-59
2021/01/22 00:36:36;;;;;;;1.33;0.80;;;;;;;9.85;79.19;94341.28;5076271;28;20179;-57
2021/01/22 00:39:03;;;;;;;0.70;0.70;;;;;;;10.04;78.34;94339.56;5094252;28;20478;-57
2021/01/22 00:41:29;;;;;;;0.87;0.70;;;;;;;9.69;79.15;94331.91;5096593;28;20173;-58
2021/01/22 00:43:54;;;;;;;2.50;0.77;;;;;;;9.56;80.02;94339.56;5096181;28;20435;-57
2021/01/22 00:46:19;;;;;;;0.70;0.70;;;;;;;9.73;79.59;94324.28;5096611;28;20162;-57
2021/01/22 00:48:45;;;;;;;2.20;0.90;;;;;;;9.64;79.90;94328.53;5077298;28;20205;-56
2021/01/22 00:51:10;;;;;;;0.93;0.93;;;;;;;9.48;80.83;94317.31;5075990;28;20228;-57
2021/01/22 00:53:35;;;;;;;1.13;0.80;;;;;;;9.62;80.18;94322.78;5076106;28;20257;-57
2021/01/22 00:56:01;;;;;;;1.13;1.03;;;;;;;9.53;80.52;94319.16;5096179;28;20204;-57
2021/01/22 00:58:26;;;;;;;0.93;0.70;;;;;;;9.41;81.01;94303.72;5061958;28;20536;-57
2021/01/22 01:00:51;;;;;;;0.90;0.90;;;;;;;9.42;80.88;94315.75;5075812;28;20573;-57
2021/01/22 01:03:17;;;;;;;0.97;0.90;;;;;;;9.27;81.73;94308.78;5075168;28;20173;-58
2021/01/22 01:05:42;;;;;;;1.20;1.10;;;;;;;9.49;80.57;94307.63;5075665;28;20180;-56
2021/01/22 01:08:08;;;;;;;1.73;1.57;;;;;;;9.40;80.72;94299.53;5090549;28;20199;-57
2021/01/22 01:10:33;;;;;;;1.00;0.90;;;;;;;9.29;80.72;94318.97;5095780;28;20180;-57
2021/01/22 01:12:58;;;;;;;1.27;0.70;;;;;;;9.23;81.14;94325.28;5095426;28;20173;-57
2021/01/22 01:15:24;;;;;;;0.77;0.77;;;;;;;9.25;80.97;94320.56;5089864;28;20568;-57
2021/01/22 01:17:49;;;;;;;0.70;0.70;;;;;;;9.04;81.25;94308.59;5085410;28;20202;-57
2021/01/22 01:20:14;;;;;;;0.87;0.83;;;;;;;9.14;80.77;94311.16;5096077;28;20171;-57
2021/01/22 01:22:40;;;;;;;1.10;0.80;;;;;;;9.18;80.69;94304.34;5095035;28;20168;-57
2021/01/22 01:25:06;;;;;;;0.80;0.70;;;;;;;9.23;80.72;94307.72;5094976;28;20266;-57
2021/01/22 01:27:31;;;;;;;0.93;0.70;;;;;;;9.14;81.06;94308.53;5096015;28;20659;-57
2021/01/22 01:29:57;;;;;;;0.50;0.50;;;;;;;9.27;80.00;94298.28;5095613;28;20436;-58
2021/01/22 01:32:22;;;;;;;0.80;0.70;;;;;;;9.33;79.61;94305.06;5095070;28;20200;-57
2021/01/22 01:34:48;;;;;;;0.73;0.73;;;;;;;9.40;79.52;94302.16;5095271;28;20183;-57
2021/01/22 01:37:13;;;;;;;2.10;0.70;;;;;;;9.23;79.78;94294.63;5092717;28;20170;-57
2021/01/22 01:39:38;;;;;;;0.50;0.50;;;;;;;9.24;80.00;94303.25;5095518;28;20643;-57
2021/01/22 01:42:04;;;;;;;0.70;0.70;;;;;;;9.19;80.49;94300.66;5095677;28;20172;-57
2021/01/22 01:44:30;;;;;;;0.60;0.60;;;;;;;9.27;80.23;94305.34;5095175;28;20568;-57
2021/01/22 01:46:55;;;;;;;0.70;0.70;;;;;;;9.46;79.51;94301.06;5077937;28;20181;-57
2021/01/22 01:49:21;;;;;;;1.53;0.90;;;;;;;9.25;79.96;94337.06;5075189;28;20284;-56
2021/01/22 01:51:46;;;;;;;0.70;0.57;;;;;;;9.41;79.50;94318.66;5090417;28;20275;-57
2021/01/22 01:54:12;;;;;;;0.83;0.83;;;;;;;9.46;79.21;94301.06;5094745;28;20171;-57
2021/01/22 01:56:37;;;;;;;0.73;0.73;;;;;;;9.49;79.09;94305.00;5078007;28;20172;-56
2021/01/22 01:59:03;;;;;;;0.83;0.70;;;;;;;9.44;78.53;94308.41;5074988;28;20190;-57
2021/01/22 02:01:29;;;;;;;0.63;0.60;;;;;;;9.53;78.53;94296.31;5075034;28;20172;-57
2021/01/22 02:03:56;;;;;;;0.60;0.60;;;;;;;9.66;77.65;94314.09;5077285;28;20211;-57
2021/01/22 02:06:22;;;;;;;1.13;0.70;;;;;;;9.40;78.50;94325.75;5091897;28;20470;-57
2021/01/22 02:08:47;;;;;;;1.23;0.77;;;;;;;9.49;78.67;94313.66;5095042;28;20427;-57
2021/01/22 02:11:15;;;;;;;1.30;0.70;;;;;;;9.52;78.05;94312.31;5093716;28;20633;-57
2021/01/22 02:13:41;;;;;;;0.67;0.67;;;;;;;9.43;77.99;94321.78;5094422;28;20204;-56
2021/01/22 02:16:09;;;;;;;0.80;0.80;;;;;;;9.50;77.76;94303.94;5091089;28;20442;-57
2021/01/22 02:18:35;;;;;;;0.70;0.63;;;;;;;9.42;77.95;94315.00;5094254;28;20439;-57
2021/01/22 02:21:32;;;;;;;0.80;0.80;;;;;;;9.40;77.53;94317.88;5094319;28;20414;-57
2021/01/22 02:24:08;;;;;;;0.93;0.70;;;;;;;9.41;77.61;94319.44;5093538;28;20396;-56
2021/01/22 02:27:07;;;;;;;1.13;0.87;;;;;;;9.50;77.01;94319.66;5074506;28;20408;-57
2021/01/22 02:29:34;;;;;;;1.60;1.00;;;;;;;9.35;77.59;94307.41;5088251;28;20478;-58
2021/01/22 02:32:07;;;;;;;0.90;0.80;;;;;;;9.54;77.03;94318.06;5094384;28;20457;-57
2021/01/22 02:34:37;;;;;;;2.37;0.70;;;;;;;9.62;76.34;94307.81;5093384;28;20915;-57
2021/01/22 02:37:05;;;;;;;1.73;0.97;;;;;;;9.57;76.15;94318.31;5094447;28;20417;-57
2021/01/22 02:39:36;;;;;;;0.77;0.60;;;;;;;9.60;75.99;94317.78;5094361;28;20434;-56
2021/01/22 02:42:04;;;;;;;1.37;0.70;;;;;;;9.75;75.52;94316.91;5094093;28;20415;-57
2021/01/22 02:44:30;;;;;;;2.93;1.00;;;;;;;9.57;75.78;94305.22;5093229;28;20438;-57
2021/01/22 02:46:58;;;;;;;1.67;1.00;;;;;;;9.55;76.38;94301.31;5094209;28;20422;-57
2021/01/22 02:49:24;;;;;;;1.63;0.70;;;;;;;9.38;76.47;94323.38;5094544;28;20411;-57
2021/01/22 02:51:49;;;;;;;1.90;0.90;;;;;;;9.44;76.46;94315.50;5094179;28;20445;-57
2021/01/22 02:54:15;;;;;;;0.93;0.77;;;;;;;9.56;76.09;94313.34;5086549;28;20170;-57
2021/01/22 02:57:00;;;;;;;0.70;0.70;;;;;;;9.59;75.97;94313.59;5077888;28;20229;-56
2021/01/22 02:59:52;;;;;;;0.80;0.80;;;;;;;9.74;74.84;94316.16;5093985;28;20230;-57
2021/01/22 03:03:13;;;;;;;0.90;0.70;;;;;;;9.38;76.46;94302.41;5093990;28;20920;-57
2021/01/22 03:05:39;;;;;;;4.80;1.03;;;;;;;9.37;76.53;94292.19;5064149;28;20436;-57
2021/01/22 03:08:13;;;;;;;1.90;0.90;;;;;;;9.32;76.46;94300.09;5074090;28;20464;-57
2021/01/22 03:10:40;;;;;;;1.97;0.87;;;;;;;9.29;76.73;94306.63;5092217;28;20422;-58
2021/01/22 03:13:06;;;;;;;1.80;1.00;;;;;;;9.31;76.68;94299.28;5093559;28;20425;-57
2021/01/22 03:15:35;;;;;;;2.40;0.80;;;;;;;9.29;76.78;94298.00;5090959;28;20873;-57
2021/01/22 03:18:14;;;;;;;2.50;1.10;;;;;;;9.17;76.91;94298.31;5073490;28;20435;-57
2021/01/22 03:20:44;;;;;;;1.20;0.80;;;;;;;9.05;77.82;94305.69;5073820;28;20402;-57
2021/01/22 03:23:11;;;;;;;0.80;0.80;;;;;;;9.20;76.87;94310.09;5072793;28;20413;-57
2021/01/22 03:25:37;;;;;;;2.20;0.90;;;;;;;9.16;76.87;94319.53;5091995;28;20499;-57
2021/01/22 03:28:04;;;;;;;2.40;0.90;;;;;;;9.11;77.07;94307.22;5093329;28;20455;-57
2021/01/22 03:30:31;;;;;;;1.77;0.97;;;;;;;9.03;77.85;94307.00;5082685;28;20255;-58
2021/01/22 03:32:57;;;;;;;2.40;0.90;;;;;;;9.30;76.49;94310.06;5073110;28;20439;-57
2021/01/22 03:35:23;;;;;;;3.40;1.27;;;;;;;9.06;76.49;94316.94;5073647;28;20815;-58
2021/01/22 03:37:48;;;;;;;4.43;1.00;;;;;;;8.94;77.17;94313.84;5072944;28;20292;-57
2021/01/22 03:40:15;;;;;;;1.63;0.70;;;;;;;8.89;77.58;94308.63;5073501;28;20177;-57
2021/01/22 03:42:42;;;;;;;1.67;0.80;;;;;;;9.05;76.74;94307.53;5072937;28;20170;-57
2021/01/22 03:45:08;;;;;;;1.27;1.00;;;;;;;9.10;76.78;94313.53;5075825;28;20821;-56
2021/01/22 03:47:33;;;;;;;2.27;1.00;;;;;;;9.02;77.18;94308.06;5085821;28;20844;-58
2021/01/22 03:49:59;;;;;;;1.77;1.07;;;;;;;9.11;76.76;94303.84;5093412;28;20416;-58
2021/01/22 03:52:25;;;;;;;1.40;0.70;;;;;;;9.07;76.82;94297.56;5093127;28;20201;-56
2021/01/22 03:54:50;;;;;;;1.90;1.30;;;;;;;9.06;76.74;94314.31;5092791;28;20445;-56
2021/01/22 03:57:15;;;;;;;2.67;1.10;;;;;;;8.94;77.21;94291.06;5092529;28;20181;-57
2021/01/22 03:59:41;;;;;;;1.77;1.10;;;;;;;8.92;77.08;94294.97;5093452;28;20179;-57
2021/01/22 04:02:06;;;;;;;0.83;0.83;;;;;;;8.98;76.81;94288.69;5093348;28;20167;-58
2021/01/22 04:04:31;;;;;;;2.67;1.00;;;;;;;9.01;76.46;94296.00;5092879;28;20184;-57
2021/01/22 04:06:57;;;;;;;2.13;1.60;;;;;;;9.03;76.36;94301.75;5093086;28;20185;-56
2021/01/22 04:09:22;;;;;;;3.13;1.40;;;;;;;8.97;76.92;94306.22;5093062;28;20259;-57
2021/01/22 04:11:47;;;;;;;3.73;1.37;;;;;;;8.95;76.40;94294.47;5091309;28;20240;-57
2021/01/22 04:14:13;;;;;;;1.60;1.00;;;;;;;8.97;75.87;94281.88;5082092;28;20189;-57
2021/01/22 04:16:38;;;;;;;2.43;1.43;;;;;;;8.79;76.09;94290.28;5093275;28;20654;-57
2021/01/22 04:19:03;;;;;;;2.10;1.07;;;;;;;8.78;76.19;94283.50;5093113;28;20190;-57
2021/01/22 04:21:29;;;;;;;1.20;1.00;;;;;;;8.75;76.03;94278.81;5093340;28;20234;-57
2021/01/22 04:23:54;;;;;;;1.90;0.90;;;;;;;8.72;76.21;94271.47;5092728;28;20176;-57
2021/01/22 04:26:19;;;;;;;2.60;1.20;;;;;;;8.82;75.24;94274.06;5092335;28;20176;-57
2021/01/22 04:28:45;;;;;;;3.63;1.03;;;;;;;8.80;75.48;94265.69;5092996;28;20260;-56
2021/01/22 04:31:10;;;;;;;3.63;1.23;;;;;;;8.91;74.81;94256.75;5108536;28;20578;-57
2021/01/22 04:33:35;;;;;;;3.60;1.20;;;;;;;9.05;74.08;94258.53;5092981;28;20212;-57
2021/01/22 04:36:01;;;;;;;2.60;0.77;;;;;;;8.89;74.44;94275.38;5096928;28;20182;-57
2021/01/22 04:38:26;;;;;;;2.53;1.33;;;;;;;8.86;74.67;94254.94;5096549;28;20243;-58
2021/01/22 04:40:52;;;;;;;1.50;1.00;;;;;;;8.99;73.88;94256.97;5092017;28;20237;-57
2021/01/22 04:43:17;;;;;;;1.10;0.73;;;;;;;9.09;73.56;94251.72;5095633;28;20204;-57
2021/01/22 04:45:43;;;;;;;1.00;0.97;;;;;;;9.08;73.25;94241.50;5096750;28;20263;-57
2021/01/22 04:48:08;;;;;;;1.13;0.90;;;;;;;9.09;72.89;94240.47;5096612;28;20665;-58
2021/01/22 04:50:34;;;;;;;2.93;0.90;;;;;;;9.04;73.04;94250.97;5096528;28;20254;-57
2021/01/22 04:53:08;;;;;;;1.20;0.90;;;;;;;9.04;73.40;94232.63;5095857;28;20175;-56
2021/01/22 04:55:36;;;;;;;2.00;0.90;;;;;;;9.17;72.88;94237.25;5089570;28;20271;-57
2021/01/22 04:58:03;;;;;;;1.70;1.20;;;;;;;9.39;72.41;94232.44;5093360;28;20441;-56
2021/01/22 05:00:29;;;;;;;1.70;0.70;;;;;;;9.41;72.03;94219.06;5096292;28;20428;-57
2021/01/22 05:02:55;;;;;;;3.13;0.90;;;;;;;9.51;71.77;94225.03;5095940;28;20490;-56
2021/01/22 05:05:21;;;;;;;1.37;0.90;;;;;;;9.29;72.75;94225.41;5096113;28;20499;-57
2021/01/22 05:07:47;;;;;;;1.17;0.50;;;;;;;9.37;72.66;94220.69;5095957;28;20192;-57
2021/01/22 05:10:13;;;;;;;1.50;0.90;;;;;;;9.19;73.29;94237.78;5092094;28;20566;-57
2021/01/22 05:12:43;;;;;;;2.37;0.70;;;;;;;9.41;72.90;94227.72;5090736;28;20459;-57
2021/01/22 05:15:11;;;;;;;0.60;0.60;;;;;;;9.25;73.63;94221.00;5094267;28;20179;-58
2021/01/22 05:17:51;;;;;;;2.13;0.93;;;;;;;9.28;74.02;94220.44;5095522;28;20445;-56
2021/01/22 05:20:30;;;;;;;0.80;0.80;;;;;;;9.05;75.38;94210.59;5095880;28;20743;-57
2021/01/22 05:22:56;;;;;;;0.50;0.50;;;;;;;9.01;75.31;94206.94;5095507;28;20409;-57
2021/01/22 05:25:22;;;;;;;0.80;0.60;;;;;;;9.07;75.26;94205.88;5095879;28;20408;-57
2021/01/22 05:27:49;;;;;;;1.50;0.50;;;;;;;9.06;75.34;94199.06;5095041;28;20829;-57
2021/01/22 05:30:15;;;;;;;1.27;0.60;;;;;;;8.96;75.59;94222.69;5095718;28;20182;-57
2021/01/22 05:32:40;;;;;;;1.27;0.60;;;;;;;8.98;75.95;94205.69;5095046;28;20465;-58
2021/01/22 05:35:06;;;;;;;1.23;0.63;;;;;;;8.97;76.36;94203.28;5095064;28;20511;-57
2021/01/22 05:37:32;;;;;;;1.73;0.60;;;;;;;9.04;76.33;94201.19;5095651;28;20226;-57
2021/01/22 05:40:13;;;;;;;2.63;0.60;;;;;;;9.15;75.78;94210.53;5096047;28;20461;-56
2021/01/22 05:42:55;;;;;;;0.40;0.33;;;;;;;8.92;76.26;94203.31;5090791;28;20186;-57
2021/01/22 05:45:50;;;;;;;0.70;0.60;;;;;;;8.92;76.61;94196.25;5075171;28;20499;-57
2021/01/22 05:48:24;;;;;;;1.43;0.50;;;;;;;8.96;76.70;94193.88;5067729;28;20446;-57
2021/01/22 05:50:51;;;;;;;1.80;0.70;;;;;;;9.12;75.92;94205.84;5095065;28;21022;-58
2021/01/22 05:53:19;;;;;;;2.37;0.50;;;;;;;9.08;75.83;94205.63;5094982;28;20416;-57
2021/01/22 05:55:44;;;;;;;1.60;0.57;;;;;;;8.88;76.55;94205.69;5094692;28;20483;-57
2021/01/22 05:58:10;;;;;;;1.50;0.50;;;;;;;8.86;76.69;94209.66;5094230;28;20430;-56
2021/01/22 06:00:36;;;;;;;0.83;0.70;;;;;;;8.86;77.02;94199.19;5095208;28;20170;-57
2021/01/22 06:03:21;;;;;;;0.90;0.40;;;;;;;8.78;77.49;94194.47;5094800;28;20216;-57
2021/01/22 06:05:53;;;;;;;0.50;0.50;;;;;;;8.90;77.15;94187.09;5094475;28;20171;-57
2021/01/22 06:08:18;;;;;;;0.50;0.50;;;;;;;8.91;76.54;94183.44;5094870;28;20452;-57
2021/01/22 06:10:46;;;;;;;0.80;0.60;;;;;;;8.83;76.90;94199.69;5095053;28;20444;-57
2021/01/22 06:13:13;;;;;;;1.03;0.40;;;;;;;8.90;77.08;94194.94;5094097;28;20547;-57
2021/01/22 06:15:41;;;;;;;2.23;0.70;;;;;;;8.88;76.99;94178.72;5094278;28;20417;-57
2021/01/22 06:18:11;;;;;;;1.53;0.90;;;;;;;8.86;76.85;94173.75;5094459;28;20467;-57
2021/01/22 06:20:41;;;;;;;0.60;0.50;;;;;;;8.84;76.72;94162.75;5095188;28;20413;-57
2021/01/22 06:23:11;;;;;;;0.90;0.60;;;;;;;8.89;76.89;94168.00;5094303;28;20503;-57
2021/01/22 06:25:38;;;;;;;1.53;0.80;;;;;;;8.86;77.07;94163.28;5094725;28;20411;-57
2021/01/22 06:28:06;;;;;;;2.50;0.60;;;;;;;8.79;77.41;94177.72;5094242;28;20534;-57
2021/01/22 06:30:35;;;;;;;0.67;0.53;;;;;;;8.84;76.99;94172.47;5094516;28;20421;-56
2021/01/22 06:33:04;;;;;;;0.60;0.50;;;;;;;8.94;76.73;94173.22;5094261;28;20404;-58
2021/01/22 06:35:36;;;;;;;1.37;0.60;;;;;;;8.88;76.62;94184.75;5093003;28;20447;-56
2021/01/22 06:38:03;;;;;;;1.03;0.50;;;;;;;8.79;76.70;94165.41;5094743;28;20512;-58
2021/01/22 06:40:29;;;;;;;0.40;0.40;;;;;;;8.85;77.13;94174.03;5094509;28;20430;-57
2021/01/22 06:42:55;;;;;;;0.90;0.57;;;;;;;8.87;76.61;94172.72;5094112;28;20401;-57
2021/01/22 06:45:23;;;;;;;1.70;0.87;;;;;;;8.79;76.68;94186.34;5083548;28;20211;-57
2021/01/22 06:48:06;;;;;;;1.50;0.70;;;;;;;8.87;76.55;94185.03;5073656;28;20455;-57
2021/01/22 06:50:32;;;;;;;1.73;0.67;;;;;;;8.80;77.20;94184.53;5092497;28;20985;-58
2021/01/22 06:53:07;;;;;;;0.80;0.50;;;;;;;8.89;76.58;94181.09;5093827;28;20419;-57
2021/01/22 06:55:33;;;;;;;1.07;0.60;;;;;;;8.82;76.89;94185.81;5094187;28;20992;-57
2021/01/22 06:58:29;;;;;;;0.83;0.67;;;;;;;8.77;77.16;94172.75;5093481;28;20434;-57
2021/01/22 07:00:57;;;;;;;1.80;0.60;;;;;;;8.93;76.29;94170.88;5081575;28;20417;-57
2021/01/22 07:03:37;;;;;;;1.07;0.50;;;;;;;8.96;76.42;94175.56;5093554;28;20449;-58
2021/01/22 07:06:31;;;;;;;2.00;0.50;;;;;;;8.77;76.88;94188.47;5075573;28;20426;-58
2021/01/22 07:09:00;;;;;;;1.40;0.80;;;;;;;8.86;76.11;94180.84;5068684;28;20437;-57
2021/01/22 07:11:45;;;;;;;0.80;0.60;;;;;;;8.87;76.19;94170.09;5073724;28;20453;-57
2021/01/22 07:14:31;;;;;;;1.30;0.63;;;;;;;8.78;76.80;94190.03;5077094;28;20771;-57
2021/01/22 07:16:57;;;;;;;2.10;0.70;;;;;;;8.76;76.88;94173.03;5073940;28;21002;-57
2021/01/22 07:19:23;;;;;;;3.43;0.97;;;;;;;8.67;76.75;94188.50;5083324;28;20461;-57
2021/01/22 07:21:51;;;;;;;0.90;0.70;;;;;;;8.72;76.42;94179.84;5091453;28;20231;-57
2021/01/22 07:24:18;;;;;;;1.00;0.70;;;;;;;8.74;76.63;94178.53;5073232;28;20415;-58
2021/01/22 07:26:47;;;;;;;0.63;0.63;;;;;;;8.73;77.12;94170.94;5073281;28;20918;-57
2021/01/22 07:29:18;;;;;;;0.57;0.53;;;;;;;8.68;76.92;94168.34;5073337;28;20479;-58
2021/01/22 07:32:04;;;;;;;1.60;0.80;;;;;;;8.75;76.56;94172.22;5073577;28;20456;-58
2021/01/22 07:34:36;;;;;;;1.33;0.40;;;;;;;8.76;75.95;94175.63;5081226;28;20429;-59
2021/01/22 07:37:05;;;;;;;0.73;0.73;;;;;;;8.89;75.78;94162.78;5092815;28;20432;-59
2021/01/22 07:39:31;;;;;;;1.57;1.00;;;;;;;8.75;76.33;94158.38;5093555;28;20436;-57
2021/01/22 07:42:11;;;;;;;1.60;0.70;;;;;;;8.77;75.86;94156.28;5088274;28;20460;-57
2021/01/22 07:44:39;;;;;;;0.77;0.70;;;;;;;8.87;75.68;94172.72;5073112;28;20411;-58
2021/01/22 07:47:06;;;;;;;1.47;0.77;;;;;;;8.77;76.07;94156.28;5073218;28;20891;-58
2021/01/22 07:49:32;;;;;;;1.97;1.10;;;;;;;8.87;76.06;94166.69;5086907;28;20863;-57
2021/01/22 07:52:02;;;;;;;1.10;0.77;;;;;;;8.87;75.94;94187.63;5093318;28;20471;-57
2021/01/22 07:54:39;;;;;;;1.27;1.13;;;;;;;8.93;75.33;94173.47;5089841;28;20515;-57
2021/01/22 07:57:13;;;;;;;2.20;1.17;;;;;;;9.00;75.23;94166.91;5072727;28;20787;-57
2021/01/22 07:59:38;;;;;;;1.77;0.70;;;;;;;8.93;75.13;94176.88;5073338;28;20496;-57
2021/01/22 08:02:15;;;;;;;0.63;0.60;;;;;;;9.04;75.59;94161.91;5073320;28;20502;-58
2021/01/22 08:04:40;;;;;;;0.60;0.60;;;;;;;8.99;75.08;94170.56;5084666;28;20176;-57
2021/01/22 08:07:06;;;;;;;0.60;0.60;;;;;;;9.03;75.33;94173.41;5093112;28;20435;-58
2021/01/22 08:09:31;;;;;;;1.27;0.50;;;;;;;8.91;76.08;94171.09;5091114;28;20216;-58
2021/01/22 08:12:10;;;;;;;0.60;0.60;;;;;;;9.01;75.26;94176.31;5086270;28;20566;-57
2021/01/22 08:14:37;;;;;;;0.53;0.53;;;;;;;8.96;76.31;94154.59;5096716;28;20183;-58
2021/01/22 08:17:05;;;;;;;1.23;0.80;;;;;;;9.10;75.60;94164.22;5097011;28;20415;-58
2021/01/22 08:19:31;;;;;;;0.80;0.60;;;;;;;9.17;75.31;94162.09;5096727;28;20909;-57
2021/01/22 08:21:57;;;;;;;1.30;0.60;;;;;;;9.35;75.21;94161.44;5096735;28;20518;-57
2021/01/22 08:24:23;;;;;;;1.63;0.50;;;;;;;9.21;74.91;94168.34;5096844;28;20911;-58
2021/01/22 08:27:05;;;;;;;0.83;0.70;;;;;;;9.23;75.16;94166.25;5086670;28;20186;-58
2021/01/22 08:29:33;;;;;;;1.77;0.80;;;;;;;9.18;75.36;94160.25;5094298;28;20489;-56
2021/01/22 08:32:01;;;;;;;0.50;0.50;;;;;;;9.21;75.81;94172.81;5096686;28;20489;-60
2021/01/22 08:34:28;;;;;;;0.70;0.70;;;;;;;9.26;75.14;94167.53;5095354;28;20440;-56
2021/01/22 08:36:57;;;;;;;1.63;0.83;;;;;;;9.27;75.08;94156.78;5094474;28;20459;-60
2021/01/22 08:39:22;;;;;;;0.60;0.60;;;;;;;9.41;74.49;94170.06;5108783;28;20543;-56
2021/01/22 08:41:48;;;;;;;0.60;0.60;;;;;;;9.35;74.59;94163.28;5092745;28;20844;-56
2021/01/22 08:44:13;;;;;;;0.77;0.57;;;;;;;9.52;73.79;94155.03;5096227;28;20663;-56
2021/01/22 08:46:47;;;;;;;4.93;0.60;;;;;;;9.53;73.41;94160.00;5078402;28;20277;-56
2021/01/22 08:49:14;;;;;;;1.23;0.83;;;;;;;9.60;73.39;94170.19;5092745;28;20196;-56
2021/01/22 08:51:39;;;;;;;1.90;0.60;;;;;;;9.65;72.82;94168.31;5076054;28;20540;-61
2021/01/22 08:54:06;;;;;;;1.60;1.37;;;;;;;9.68;72.12;94193.19;5075957;28;20432;-60
2021/01/22 08:56:32;;;;;;;1.00;0.90;;;;;;;9.84;71.30;94171.84;5076265;28;20171;-56
2021/01/22 08:59:06;;;;;;;1.83;0.73;;;;;;;9.88;71.33;94178.09;5083479;28;20958;-61
2021/01/22 09:01:56;;;;;;;1.67;0.70;;;;;;;10.01;71.14;94169.59;5096275;28;20631;-61
2021/01/22 09:04:35;;;;;;;1.00;0.57;;;;;;;10.11;70.51;94184.47;5095818;28;20931;-56
2021/01/22 09:07:14;;;;;;;1.57;0.80;;;;;;;10.00;70.56;94183.00;5096113;28;20416;-60
2021/01/22 09:09:47;;;;;;;0.80;0.70;;;;;;;9.98;70.89;94172.75;5095782;28;20423;-56
2021/01/22 09:12:14;;;;;;;1.13;0.90;;;;;;;10.09;70.08;94184.00;5096049;28;20977;-61
2021/01/22 09:14:53;;;;;;;2.10;0.67;;;;;;;10.23;70.36;94175.22;5080059;28;20432;-56
2021/01/22 09:17:33;;;;;;;2.40;0.90;;;;;;;10.22;69.75;94172.84;5075700;28;20436;-60
2021/01/22 09:19:59;;;;;;;0.63;0.60;;;;;;;10.28;70.27;94177.78;5089087;28;20490;-57
2021/01/22 09:22:27;;;;;;;0.67;0.60;;;;;;;10.34;70.02;94184.53;5077168;28;20452;-59
2021/01/22 09:24:52;;;;;;;2.00;0.70;;;;;;;10.35;69.37;94193.97;5074096;28;20430;-56
2021/01/22 09:27:18;;;;;;;7.03;5.73;;;;;;;10.65;68.96;94169.25;5095713;28;20411;-58
2021/01/22 09:29:43;;;;;;;1.40;0.93;;;;;;;10.83;67.70;94188.75;5095744;28;20169;-57
2021/01/22 09:32:09;;;;;;;0.63;0.60;;;;;;;11.14;66.82;94174.19;5089138;28;20228;-59
2021/01/22 09:34:34;;;;;;;1.67;0.80;;;;;;;11.23;65.72;94167.22;5087437;28;20268;-56
2021/01/22 09:37:00;;;;;;;1.83;0.80;;;;;;;11.32;64.64;94170.78;5075519;28;20420;-58
2021/01/22 09:39:26;;;;;;;4.33;0.90;;;;;;;11.43;64.57;94174.84;5075395;28;20258;-58
2021/01/22 09:41:51;;;;;;;1.73;0.70;;;;;;;11.38;64.01;94172.25;5075395;28;20408;-57
2021/01/22 09:44:18;;;;;;;2.37;0.80;;;;;;;11.71;63.40;94178.41;5074856;28;20173;-57
2021/01/22 09:46:44;;;;;;;2.60;0.73;;;;;;;11.64;63.64;94189.25;5088488;28;20178;-58
2021/01/22 09:49:10;;;;;;;2.10;0.80;;;;;;;11.55;63.49;94190.97;5085659;28;20452;-58
2021/01/22 09:51:35;;;;;;;1.30;0.70;;;;;;;11.91;62.23;94188.63;5071470;28;20460;-59
2021/01/22 09:54:00;;;;;;;0.80;0.80;;;;;;;12.11;61.85;94185.66;5071070;28;20202;-58
2021/01/22 09:56:26;;;;;;;1.93;1.20;;;;;;;11.81;61.67;94200.06;5071255;28;20186;-59
2021/01/22 09:58:51;;;;;;;2.77;0.93;;;;;;;11.89;62.41;94201.28;5070950;28;20226;-59
2021/01/22 10:01:16;;;;;;;2.10;0.70;;;;;;;11.88;61.49;94192.63;5086629;28;20261;-58
2021/01/22 10:03:42;;;;;;;1.60;0.73;;;;;;;12.00;61.49;94181.63;5071598;28;20675;-59
2021/01/22 10:06:12;;;;;;;1.10;0.70;;;;;;;11.87;61.60;94185.78;5091551;28;20185;-59
2021/01/22 10:08:37;;;;;;;3.60;1.27;;;;;;;11.93;61.75;94192.53;5087648;28;20194;-60
2021/01/22 10:11:03;;;;;;;3.03;0.87;;;;;;;11.97;61.44;94184.84;5052770;28;21043;-60
2021/01/22 10:13:28;;;;;;;0.97;0.77;;;;;;;12.12;61.40;94171.44;5078783;28;20586;-59
2021/01/22 10:15:53;;;;;;;1.33;0.80;;;;;;;12.49;60.56;94171.31;5091336;28;20181;-58
2021/01/22 10:18:19;;;;;;;2.00;1.00;;;;;;;12.51;60.89;94165.75;5091213;28;20193;-59
2021/01/22 10:20:48;;;;;;;1.20;0.90;;;;;;;12.63;59.42;94158.16;5091263;28;20229;-59
2021/01/22 10:23:14;;;;;;;0.90;0.70;;;;;;;12.70;59.32;94154.03;5073233;28;20220;-59
2021/01/22 10:25:39;;;;;;;1.17;0.70;;;;;;;12.47;59.76;94168.19;5081576;28;20424;-59
2021/01/22 10:28:05;;;;;;;0.70;0.70;;;;;;;12.17;61.24;94151.06;5090847;28;20718;-59
2021/01/22 10:30:30;;;;;;;0.83;0.80;;;;;;;12.04;60.84;94164.97;5090195;28;20272;-59
2021/01/22 10:32:55;;;;;;;1.03;0.93;;;;;;;12.09;61.90;94149.09;5092512;28;20201;-58
2021/01/22 10:35:21;;;;;;;0.70;0.70;;;;;;;12.07;62.11;94147.81;5089991;28;20178;-59
2021/01/22 10:37:46;;;;;;;0.53;0.53;;;;;;;12.03;61.89;94152.88;5075557;28;20273;-59
2021/01/22 10:40:12;;;;;;;0.83;0.70;;;;;;;12.36;61.33;94162.31;5079865;28;20721;-60
2021/01/22 10:42:38;;;;;;;1.10;0.50;;;;;;;12.52;60.14;94148.88;5090363;28;20169;-58
2021/01/22 10:45:03;;;;;;;1.10;0.60;;;;;;;12.91;58.69;94151.78;5090696;28;20431;-59
2021/01/22 10:47:29;;;;;;;0.87;0.60;;;;;;;13.21;57.58;94154.63;5089860;28;20330;-57
2021/01/22 10:49:55;;;;;;;0.57;0.53;;;;;;;13.52;55.67;94152.09;5090176;28;20519;-61
2021/01/22 10:52:21;;;;;;;6.90;1.27;;;;;;;13.25;56.15;94145.03;5088923;28;20379;-57
2021/01/22 10:54:46;;;;;;;1.53;0.87;;;;;;;12.99;57.41;94145.84;5087621;28;20538;-60
2021/01/22 10:57:12;;;;;;;1.13;0.60;;;;;;;13.15;56.66;94152.41;5089789;28;20178;-61
2021/01/22 10:59:38;;;;;;;1.20;0.60;;;;;;;13.26;56.97;94164.28;5089374;28;20588;-59
2021/01/22 11:02:10;;;;;;;1.57;0.83;;;;;;;12.82;57.74;94146.44;5090441;28;20185;-61
2021/01/22 11:04:35;;;;;;;0.50;0.50;;;;;;;12.85;58.23;94148.47;5089861;28;20473;-61
2021/01/22 11:07:03;;;;;;;0.93;0.70;;;;;;;12.98;58.81;94139.00;5089889;28;21158;-61
2021/01/22 11:09:32;;;;;;;0.90;0.70;;;;;;;12.96;58.13;94139.31;5090121;28;20597;-61
2021/01/22 11:11:57;;;;;;;0.57;0.57;;;;;;;13.03;58.10;94146.81;5087582;28;20964;-62
2021/01/22 11:14:23;;;;;;;0.90;0.90;;;;;;;13.07;57.55;94137.25;5089153;28;20424;-62
2021/01/22 11:16:48;;;;;;;0.90;0.70;;;;;;;12.93;58.83;94137.25;5089786;28;20182;-61
2021/01/22 11:19:14;;;;;;;0.80;0.80;;;;;;;12.98;58.72;94137.16;5089792;28;20204;-62
2021/01/22 11:21:39;;;;;;;1.10;0.80;;;;;;;12.94;58.51;94132.75;5089957;28;20178;-62
2021/01/22 11:24:05;;;;;;;1.90;0.73;;;;;;;13.33;58.34;94125.88;5089385;28;20170;-61
2021/01/22 11:26:31;;;;;;;1.70;0.90;;;;;;;13.35;58.10;94131.63;5079522;28;20196;-60
2021/01/22 11:28:56;;;;;;;2.00;1.10;;;;;;;13.30;57.52;94125.69;5089343;28;20201;-58
2021/01/22 11:31:22;;;;;;;1.40;0.90;;;;;;;13.37;56.70;94124.19;5089801;28;20455;-57
2021/01/22 11:33:47;;;;;;;2.60;1.23;;;;;;;13.29;56.86;94124.13;5089630;28;20173;-58
2021/01/22 11:36:13;;;;;;;1.73;0.90;;;;;;;13.23;57.15;94122.66;5089308;28;20563;-58
2021/01/22 11:38:38;;;;;;;0.77;0.77;;;;;;;13.51;56.49;94124.16;5072066;28;20239;-57
2021/01/22 11:41:04;;;;;;;0.60;0.60;;;;;;;13.38;55.69;94119.72;5089249;28;20205;-57
2021/01/22 11:43:29;;;;;;;2.37;0.70;;;;;;;13.13;56.56;94121.06;5075178;28;20644;-57